Spennymoor, United Kingdom
Current Conditions -  °F | °C
As of 9:50 AM on Friday 28 Nov 2014 (Local Time) from EGNV Reporting Station
Haze Haze  
Wind Chill: 50°   Ceiling: 3300
Heat Index: 50°   Visibility: 1.8mi
Dew Point: 48°   Wind: 10mph
Humidity: 94%   Direction: 60°ENE
Pressure: 29.74"   Gusts: NA
Location:  54.7°N, 1.6°W
Report Text: EGNV 280950Z 06009KT 3000 BR FEW007 SCT011 BKN033 10/09 Q1007
Loading
Personal Weather Stations






























Interactive Weather Map New forecast layout! Learn more

10-Day Weather Forecast

Advertisements
Track Severe Weather on mobile